sensor_id;sensor_type;location;lat;lon;timestamp;temperature;humidity
1347;DHT22;667;48.796;9.480;2023-02-18T00:01:41;14.30;77.10
1347;DHT22;667;48.796;9.480;2023-02-18T00:04:08;14.30;77.10
1347;DHT22;667;48.796;9.480;2023-02-18T00:06:35;14.30;77.20
1347;DHT22;667;48.796;9.480;2023-02-18T00:09:01;14.40;77.40
1347;DHT22;667;48.796;9.480;2023-02-18T00:11:30;14.30;77.20
1347;DHT22;667;48.796;9.480;2023-02-18T00:13:59;14.30;77.20
1347;DHT22;667;48.796;9.480;2023-02-18T00:16:26;14.30;77.10
1347;DHT22;667;48.796;9.480;2023-02-18T00:19:04;14.30;77.10
1347;DHT22;667;48.796;9.480;2023-02-18T00:21:32;14.30;77.00
1347;DHT22;667;48.796;9.480;2023-02-18T00:23:58;14.30;76.80
1347;DHT22;667;48.796;9.480;2023-02-18T00:26:25;14.30;76.70
1347;DHT22;667;48.796;9.480;2023-02-18T00:28:51;14.30;76.70
1347;DHT22;667;48.796;9.480;2023-02-18T00:31:24;14.30;76.70
1347;DHT22;667;48.796;9.480;2023-02-18T00:33:58;14.30;76.70
1347;DHT22;667;48.796;9.480;2023-02-18T00:36:27;14.30;76.60
1347;DHT22;667;48.796;9.480;2023-02-18T00:38:56;14.30;76.50
1347;DHT22;667;48.796;9.480;2023-02-18T00:41:26;14.30;76.40
1347;DHT22;667;48.796;9.480;2023-02-18T00:43:52;14.30;76.40
1347;DHT22;667;48.796;9.480;2023-02-18T00:46:19;14.30;76.40
1347;DHT22;667;48.796;9.480;2023-02-18T00:48:46;14.30;76.30
1347;DHT22;667;48.796;9.480;2023-02-18T00:51:11;14.30;76.20
1347;DHT22;667;48.796;9.480;2023-02-18T00:53:38;14.30;76.20
1347;DHT22;667;48.796;9.480;2023-02-18T00:56:04;14.30;76.10
1347;DHT22;667;48.796;9.480;2023-02-18T00:58:35;14.30;76.10
1347;DHT22;667;48.796;9.480;2023-02-18T01:01:02;14.30;76.10
1347;DHT22;667;48.796;9.480;2023-02-18T01:03:32;14.30;76.20
1347;DHT22;667;48.796;9.480;2023-02-18T01:05:58;14.30;76.10
1347;DHT22;667;48.796;9.480;2023-02-18T01:08:24;14.30;76.20
1347;DHT22;667;48.796;9.480;2023-02-18T01:10:53;14.20;76.10
1347;DHT22;667;48.796;9.480;2023-02-18T01:13:20;14.20;76.20
1347;DHT22;667;48.796;9.480;2023-02-18T01:15:46;14.30;76.20
1347;DHT22;667;48.796;9.480;2023-02-18T01:18:13;14.30;76.10
1347;DHT22;667;48.796;9.480;2023-02-18T01:20:40;14.30;76.20
1347;DHT22;667;48.796;9.480;2023-02-18T01:23:06;14.30;76.30
1347;DHT22;667;48.796;9.480;2023-02-18T01:25:32;14.30;76.30
1347;DHT22;667;48.796;9.480;2023-02-18T01:27:58;14.20;76.20
1347;DHT22;667;48.796;9.480;2023-02-18T01:30:24;14.20;76.30
1347;DHT22;667;48.796;9.480;2023-02-18T01:32:50;14.20;76.20
1347;DHT22;667;48.796;9.480;2023-02-18T01:35:18;14.20;76.20
1347;DHT22;667;48.796;9.480;2023-02-18T01:37:45;14.20;76.20
1347;DHT22;667;48.796;9.480;2023-02-18T01:40:17;14.20;76.20
1347;DHT22;667;48.796;9.480;2023-02-18T01:42:43;14.20;76.20
1347;DHT22;667;48.796;9.480;2023-02-18T01:48:21;14.20;76.30
1347;DHT22;667;48.796;9.480;2023-02-18T01:50:52;14.20;76.40
1347;DHT22;667;48.796;9.480;2023-02-18T01:53:25;14.20;76.30
1347;DHT22;667;48.796;9.480;2023-02-18T01:55:52;14.20;76.30
1347;DHT22;667;48.796;9.480;2023-02-18T01:58:19;14.20;77.00
1347;DHT22;667;48.796;9.480;2023-02-18T02:00:45;14.20;76.30
1347;DHT22;667;48.796;9.480;2023-02-18T02:03:10;14.20;76.20
1347;DHT22;667;48.796;9.480;2023-02-18T02:05:36;14.20;76.30
1347;DHT22;667;48.796;9.480;2023-02-18T02:08:03;14.20;76.30
1347;DHT22;667;48.796;9.480;2023-02-18T02:11:06;14.20;76.30
1347;DHT22;667;48.796;9.480;2023-02-18T02:16:40;14.20;76.20
1347;DHT22;667;48.796;9.480;2023-02-18T02:22:39;14.20;76.00
1347;DHT22;667;48.796;9.480;2023-02-18T02:33:36;14.20;76.00
1347;DHT22;667;48.796;9.480;2023-02-18T02:36:30;14.10;75.80
1347;DHT22;667;48.796;9.480;2023-02-18T02:39:19;14.10;75.70
1347;DHT22;667;48.796;9.480;2023-02-18T02:41:54;14.20;75.80
1347;DHT22;667;48.796;9.480;2023-02-18T02:44:38;14.10;75.60
1347;DHT22;667;48.796;9.480;2023-02-18T02:47:20;14.10;75.60
1347;DHT22;667;48.796;9.480;2023-02-18T02:52:52;14.10;75.30
1347;DHT22;667;48.796;9.480;2023-02-18T02:55:21;14.10;75.20
1347;DHT22;667;48.796;9.480;2023-02-18T02:57:52;14.20;75.30
1347;DHT22;667;48.796;9.480;2023-02-18T03:00:26;14.20;75.10
1347;DHT22;667;48.796;9.480;2023-02-18T03:03:10;14.20;75.00
1347;DHT22;667;48.796;9.480;2023-02-18T03:05:48;14.20;75.00
1347;DHT22;667;48.796;9.480;2023-02-18T03:08:39;14.20;74.90
1347;DHT22;667;48.796;9.480;2023-02-18T03:11:10;14.20;75.00
1347;DHT22;667;48.796;9.480;2023-02-18T03:13:43;14.20;75.00
1347;DHT22;667;48.796;9.480;2023-02-18T03:16:56;14.20;75.00
1347;DHT22;667;48.796;9.480;2023-02-18T03:19:35;14.20;75.10
1347;DHT22;667;48.796;9.480;2023-02-18T03:22:10;14.10;75.00
1347;DHT22;667;48.796;9.480;2023-02-18T03:24:42;14.10;75.00
1347;DHT22;667;48.796;9.480;2023-02-18T03:27:32;14.20;75.20
1347;DHT22;667;48.796;9.480;2023-02-18T03:30:10;14.10;75.20
1347;DHT22;667;48.796;9.480;2023-02-18T03:32:37;14.20;76.00
1347;DHT22;667;48.796;9.480;2023-02-18T03:35:08;14.10;75.30
1347;DHT22;667;48.796;9.480;2023-02-18T03:37:38;14.10;75.30
1347;DHT22;667;48.796;9.480;2023-02-18T03:40:08;14.10;75.30
1347;DHT22;667;48.796;9.480;2023-02-18T03:42:34;14.00;75.30
1347;DHT22;667;48.796;9.480;2023-02-18T03:45:00;14.10;75.40
1347;DHT22;667;48.796;9.480;2023-02-18T03:47:26;14.10;75.50
1347;DHT22;667;48.796;9.480;2023-02-18T03:49:52;14.10;75.50
1347;DHT22;667;48.796;9.480;2023-02-18T03:52:17;14.10;75.50
1347;DHT22;667;48.796;9.480;2023-02-18T03:54:43;14.10;75.50
1347;DHT22;667;48.796;9.480;2023-02-18T03:57:09;14.00;75.40
1347;DHT22;667;48.796;9.480;2023-02-18T03:59:34;14.00;75.40
1347;DHT22;667;48.796;9.480;2023-02-18T04:02:00;14.10;75.60
1347;DHT22;667;48.796;9.480;2023-02-18T04:04:27;14.00;75.40
1347;DHT22;667;48.796;9.480;2023-02-18T04:06:53;14.00;75.50
1347;DHT22;667;48.796;9.480;2023-02-18T04:09:19;14.00;75.40
1347;DHT22;667;48.796;9.480;2023-02-18T04:11:44;14.10;75.50
1347;DHT22;667;48.796;9.480;2023-02-18T04:14:13;14.00;75.30
1347;DHT22;667;48.796;9.480;2023-02-18T04:16:39;14.00;75.40
1347;DHT22;667;48.796;9.480;2023-02-18T04:19:05;14.00;75.40
1347;DHT22;667;48.796;9.480;2023-02-18T04:21:31;14.00;75.40
1347;DHT22;667;48.796;9.480;2023-02-18T04:23:57;14.00;75.50
1347;DHT22;667;48.796;9.480;2023-02-18T04:26:24;14.00;75.50
1347;DHT22;667;48.796;9.480;2023-02-18T04:28:49;14.00;75.50
1347;DHT22;667;48.796;9.480;2023-02-18T04:31:15;14.00;75.40
1347;DHT22;667;48.796;9.480;2023-02-18T04:33:41;14.00;75.40
1347;DHT22;667;48.796;9.480;2023-02-18T04:36:07;14.00;75.30
1347;DHT22;667;48.796;9.480;2023-02-18T04:38:33;14.00;75.30
1347;DHT22;667;48.796;9.480;2023-02-18T04:40:58;14.00;75.20
1347;DHT22;667;48.796;9.480;2023-02-18T04:43:24;14.00;75.10
1347;DHT22;667;48.796;9.480;2023-02-18T04:45:50;14.00;75.10
1347;DHT22;667;48.796;9.480;2023-02-18T04:48:15;14.00;75.20
1347;DHT22;667;48.796;9.480;2023-02-18T04:50:43;13.90;75.10
1347;DHT22;667;48.796;9.480;2023-02-18T04:53:08;14.00;75.20
1347;DHT22;667;48.796;9.480;2023-02-18T04:55:34;13.90;75.10
1347;DHT22;667;48.796;9.480;2023-02-18T04:58:00;14.00;75.10
1347;DHT22;667;48.796;9.480;2023-02-18T05:00:26;14.00;75.10
1347;DHT22;667;48.796;9.480;2023-02-18T05:02:53;14.00;75.10
1347;DHT22;667;48.796;9.480;2023-02-18T05:05:19;13.90;75.00
1347;DHT22;667;48.796;9.480;2023-02-18T05:07:44;13.90;75.00
1347;DHT22;667;48.796;9.480;2023-02-18T05:10:14;13.90;75.00
1347;DHT22;667;48.796;9.480;2023-02-18T05:12:40;13.90;75.00
1347;DHT22;667;48.796;9.480;2023-02-18T05:15:06;13.90;74.90
1347;DHT22;667;48.796;9.480;2023-02-18T05:17:32;13.80;74.80
1347;DHT22;667;48.796;9.480;2023-02-18T05:19:58;13.80;75.00
1347;DHT22;667;48.796;9.480;2023-02-18T05:22:24;13.80;74.90
1347;DHT22;667;48.796;9.480;2023-02-18T05:24:49;13.80;74.90
1347;DHT22;667;48.796;9.480;2023-02-18T05:27:15;13.80;75.00
1347;DHT22;667;48.796;9.480;2023-02-18T05:29:40;13.80;75.10
1347;DHT22;667;48.796;9.480;2023-02-18T05:32:06;13.80;75.10
1347;DHT22;667;48.796;9.480;2023-02-18T05:34:31;13.80;75.20
1347;DHT22;667;48.796;9.480;2023-02-18T05:36:57;13.80;75.20
1347;DHT22;667;48.796;9.480;2023-02-18T05:39:22;13.80;75.40
1347;DHT22;667;48.796;9.480;2023-02-18T05:41:48;13.70;75.30
1347;DHT22;667;48.796;9.480;2023-02-18T05:44:13;13.70;75.30
1347;DHT22;667;48.796;9.480;2023-02-18T05:46:54;13.70;75.40
1347;DHT22;667;48.796;9.480;2023-02-18T05:49:20;13.80;75.40
1347;DHT22;667;48.796;9.480;2023-02-18T05:51:46;13.70;75.40
1347;DHT22;667;48.796;9.480;2023-02-18T05:54:11;13.70;75.50
1347;DHT22;667;48.796;9.480;2023-02-18T05:56:37;13.70;75.50
1347;DHT22;667;48.796;9.480;2023-02-18T05:59:03;13.70;75.60
1347;DHT22;667;48.796;9.480;2023-02-18T06:01:28;13.70;75.60
1347;DHT22;667;48.796;9.480;2023-02-18T06:03:54;13.70;75.60
1347;DHT22;667;48.796;9.480;2023-02-18T06:06:20;13.70;75.60
1347;DHT22;667;48.796;9.480;2023-02-18T06:08:45;13.70;75.60
1347;DHT22;667;48.796;9.480;2023-02-18T06:11:11;13.70;75.60
1347;DHT22;667;48.796;9.480;2023-02-18T06:13:36;13.70;75.70
1347;DHT22;667;48.796;9.480;2023-02-18T06:16:02;13.70;75.70
1347;DHT22;667;48.796;9.480;2023-02-18T06:18:28;13.70;75.80
1347;DHT22;667;48.796;9.480;2023-02-18T06:20:53;13.70;75.80
1347;DHT22;667;48.796;9.480;2023-02-18T06:23:19;13.70;75.90
1347;DHT22;667;48.796;9.480;2023-02-18T06:25:47;13.60;75.80
1347;DHT22;667;48.796;9.480;2023-02-18T06:28:13;13.60;75.90
1347;DHT22;667;48.796;9.480;2023-02-18T06:30:39;13.60;76.00
1347;DHT22;667;48.796;9.480;2023-02-18T06:33:04;13.70;76.20
1347;DHT22;667;48.796;9.480;2023-02-18T06:35:30;13.60;76.00
1347;DHT22;667;48.796;9.480;2023-02-18T06:37:55;13.60;76.20
1347;DHT22;667;48.796;9.480;2023-02-18T06:40:21;13.60;76.20
1347;DHT22;667;48.796;9.480;2023-02-18T06:42:47;13.60;76.20
1347;DHT22;667;48.796;9.480;2023-02-18T06:45:12;13.60;76.20
1347;DHT22;667;48.796;9.480;2023-02-18T06:47:38;13.60;76.20
1347;DHT22;667;48.796;9.480;2023-02-18T06:50:04;13.70;76.40
1347;DHT22;667;48.796;9.480;2023-02-18T06:52:30;13.70;76.40
1347;DHT22;667;48.796;9.480;2023-02-18T06:54:57;13.60;76.40
1347;DHT22;667;48.796;9.480;2023-02-18T06:57:23;13.70;76.50
1347;DHT22;667;48.796;9.480;2023-02-18T06:59:48;13.70;76.60
1347;DHT22;667;48.796;9.480;2023-02-18T07:02:14;13.70;76.50
1347;DHT22;667;48.796;9.480;2023-02-18T07:04:40;13.70;76.60
1347;DHT22;667;48.796;9.480;2023-02-18T07:07:05;13.70;76.60
1347;DHT22;667;48.796;9.480;2023-02-18T07:09:31;13.60;76.50
1347;DHT22;667;48.796;9.480;2023-02-18T07:11:56;13.70;76.60
1347;DHT22;667;48.796;9.480;2023-02-18T07:14:22;13.70;76.70
1347;DHT22;667;48.796;9.480;2023-02-18T07:16:49;13.70;76.70
1347;DHT22;667;48.796;9.480;2023-02-18T07:19:14;13.70;76.70
1347;DHT22;667;48.796;9.480;2023-02-18T07:21:40;13.70;76.60
1347;DHT22;667;48.796;9.480;2023-02-18T07:24:06;13.70;76.60
1347;DHT22;667;48.796;9.480;2023-02-18T07:26:31;13.70;76.70
1347;DHT22;667;48.796;9.480;2023-02-18T07:28:57;13.70;76.60
1347;DHT22;667;48.796;9.480;2023-02-18T07:31:22;13.70;76.60
1347;DHT22;667;48.796;9.480;2023-02-18T07:33:48;13.70;76.60
1347;DHT22;667;48.796;9.480;2023-02-18T07:36:13;13.70;76.60
1347;DHT22;667;48.796;9.480;2023-02-18T07:38:39;13.70;76.60
1347;DHT22;667;48.796;9.480;2023-02-18T07:41:04;13.70;76.40
1347;DHT22;667;48.796;9.480;2023-02-18T07:43:30;13.70;76.40
1347;DHT22;667;48.796;9.480;2023-02-18T07:45:56;13.70;76.40
1347;DHT22;667;48.796;9.480;2023-02-18T07:48:21;13.70;76.30
1347;DHT22;667;48.796;9.480;2023-02-18T07:50:47;13.70;77.00
1347;DHT22;667;48.796;9.480;2023-02-18T07:53:14;13.80;76.40
1347;DHT22;667;48.796;9.480;2023-02-18T07:55:40;13.80;76.40
1347;DHT22;667;48.796;9.480;2023-02-18T08:00:44;13.80;76.10
1347;DHT22;667;48.796;9.480;2023-02-18T08:03:12;13.90;76.10
1347;DHT22;667;48.796;9.480;2023-02-18T08:05:39;13.90;76.00
1347;DHT22;667;48.796;9.480;2023-02-18T08:08:04;13.90;75.90
1347;DHT22;667;48.796;9.480;2023-02-18T08:10:30;14.00;75.90
1347;DHT22;667;48.796;9.480;2023-02-18T08:12:56;14.00;75.70
1347;DHT22;667;48.796;9.480;2023-02-18T08:15:21;14.00;75.60
1347;DHT22;667;48.796;9.480;2023-02-18T08:17:47;14.10;75.70
1347;DHT22;667;48.796;9.480;2023-02-18T08:20:12;14.10;75.60
1347;DHT22;667;48.796;9.480;2023-02-18T08:22:38;14.10;75.60
1347;DHT22;667;48.796;9.480;2023-02-18T08:25:04;14.10;75.40
1347;DHT22;667;48.796;9.480;2023-02-18T08:27:30;14.10;75.30
1347;DHT22;667;48.796;9.480;2023-02-18T08:29:56;14.20;75.40
1347;DHT22;667;48.796;9.480;2023-02-18T08:32:21;14.20;75.30
1347;DHT22;667;48.796;9.480;2023-02-18T08:34:47;14.20;75.10
1347;DHT22;667;48.796;9.480;2023-02-18T08:37:12;14.30;75.10
1347;DHT22;667;48.796;9.480;2023-02-18T08:39:38;14.30;74.90
1347;DHT22;667;48.796;9.480;2023-02-18T08:42:04;14.30;74.80
1347;DHT22;667;48.796;9.480;2023-02-18T08:44:30;14.40;74.90
1347;DHT22;667;48.796;9.480;2023-02-18T08:46:55;14.40;74.60
1347;DHT22;667;48.796;9.480;2023-02-18T08:49:21;14.50;74.50
1347;DHT22;667;48.796;9.480;2023-02-18T08:51:49;14.50;74.50
1347;DHT22;667;48.796;9.480;2023-02-18T08:54:15;14.60;74.20
1347;DHT22;667;48.796;9.480;2023-02-18T08:56:40;14.60;73.90
1347;DHT22;667;48.796;9.480;2023-02-18T08:59:06;14.70;73.90
1347;DHT22;667;48.796;9.480;2023-02-18T09:01:31;14.70;73.80
1347;DHT22;667;48.796;9.480;2023-02-18T09:03:57;14.70;73.50
1347;DHT22;667;48.796;9.480;2023-02-18T09:06:23;14.70;73.30
1347;DHT22;667;48.796;9.480;2023-02-18T09:08:49;14.80;73.40
1347;DHT22;667;48.796;9.480;2023-02-18T09:11:15;14.80;73.10
1347;DHT22;667;48.796;9.480;2023-02-18T09:13:40;14.90;73.10
1347;DHT22;667;48.796;9.480;2023-02-18T09:16:10;14.90;72.80
1347;DHT22;667;48.796;9.480;2023-02-18T09:18:36;15.00;72.80
1347;DHT22;667;48.796;9.480;2023-02-18T09:21:04;15.00;72.60
1347;DHT22;667;48.796;9.480;2023-02-18T09:23:31;15.10;72.60
1347;DHT22;667;48.796;9.480;2023-02-18T09:25:57;15.10;72.00
1347;DHT22;667;48.796;9.480;2023-02-18T09:28:23;15.20;71.80
1347;DHT22;667;48.796;9.480;2023-02-18T09:30:49;15.20;71.70
1347;DHT22;667;48.796;9.480;2023-02-18T09:33:16;15.30;71.60
1347;DHT22;667;48.796;9.480;2023-02-18T09:35:43;15.40;71.40
1347;DHT22;667;48.796;9.480;2023-02-18T09:38:10;15.40;71.00
1347;DHT22;667;48.796;9.480;2023-02-18T09:40:38;15.50;70.50
1347;DHT22;667;48.796;9.480;2023-02-18T09:43:06;15.50;70.30
1347;DHT22;667;48.796;9.480;2023-02-18T09:45:37;15.50;70.30
1347;DHT22;667;48.796;9.480;2023-02-18T09:48:03;15.60;70.40
1347;DHT22;667;48.796;9.480;2023-02-18T09:50:31;15.60;70.30
1347;DHT22;667;48.796;9.480;2023-02-18T09:52:59;15.60;69.90
1347;DHT22;667;48.796;9.480;2023-02-18T09:57:57;15.70;69.60
1347;DHT22;667;48.796;9.480;2023-02-18T10:00:36;15.80;69.50
1347;DHT22;667;48.796;9.480;2023-02-18T10:03:12;15.80;69.30
1347;DHT22;667;48.796;9.480;2023-02-18T10:05:45;15.80;69.20
1347;DHT22;667;48.796;9.480;2023-02-18T10:08:39;15.80;68.70
1347;DHT22;667;48.796;9.480;2023-02-18T10:11:16;15.80;68.50
1347;DHT22;667;48.796;9.480;2023-02-18T10:13:43;15.80;68.80
1347;DHT22;667;48.796;9.480;2023-02-18T10:16:14;15.80;68.90
1347;DHT22;667;48.796;9.480;2023-02-18T10:18:43;15.80;68.80
1347;DHT22;667;48.796;9.480;2023-02-18T10:21:15;15.80;68.60
1347;DHT22;667;48.796;9.480;2023-02-18T10:26:18;15.80;68.30
1347;DHT22;667;48.796;9.480;2023-02-18T10:28:44;15.80;67.90
1347;DHT22;667;48.796;9.480;2023-02-18T10:31:14;15.80;68.00
1347;DHT22;667;48.796;9.480;2023-02-18T10:33:46;15.80;68.10
1347;DHT22;667;48.796;9.480;2023-02-18T10:41:52;16.00;67.50
1347;DHT22;667;48.796;9.480;2023-02-18T10:47:05;16.10;66.80
1347;DHT22;667;48.796;9.480;2023-02-18T10:49:54;16.30;66.40
1347;DHT22;667;48.796;9.480;2023-02-18T10:52:21;16.30;65.60
1347;DHT22;667;48.796;9.480;2023-02-18T10:54:56;16.40;65.50
1347;DHT22;667;48.796;9.480;2023-02-18T10:57:23;16.40;65.20
1347;DHT22;667;48.796;9.480;2023-02-18T11:02:39;16.50;64.80
1347;DHT22;667;48.796;9.480;2023-02-18T11:05:22;16.60;64.50
1347;DHT22;667;48.796;9.480;2023-02-18T11:07:50;16.50;64.30
1347;DHT22;667;48.796;9.480;2023-02-18T11:10:21;16.50;64.10
1347;DHT22;667;48.796;9.480;2023-02-18T11:12:50;16.50;64.00
1347;DHT22;667;48.796;9.480;2023-02-18T11:15:26;16.60;63.70
1347;DHT22;667;48.796;9.480;2023-02-18T11:17:57;16.50;63.30
1347;DHT22;667;48.796;9.480;2023-02-18T11:20:37;16.60;63.70
1347;DHT22;667;48.796;9.480;2023-02-18T11:25:38;16.60;62.90
1347;DHT22;667;48.796;9.480;2023-02-18T11:28:23;16.60;62.90
1347;DHT22;667;48.796;9.480;2023-02-18T11:30:54;16.60;63.00
1347;DHT22;667;48.796;9.480;2023-02-18T11:33:27;16.60;62.80
1347;DHT22;667;48.796;9.480;2023-02-18T11:35:57;16.60;63.00
1347;DHT22;667;48.796;9.480;2023-02-18T11:40:58;16.60;63.10
1347;DHT22;667;48.796;9.480;2023-02-18T11:43:29;16.60;63.10
1347;DHT22;667;48.796;9.480;2023-02-18T11:46:27;16.60;62.80
1347;DHT22;667;48.796;9.480;2023-02-18T11:48:54;16.60;62.70
1347;DHT22;667;48.796;9.480;2023-02-18T11:51:26;16.60;62.60
1347;DHT22;667;48.796;9.480;2023-02-18T11:54:03;16.60;62.60
1347;DHT22;667;48.796;9.480;2023-02-18T11:56:32;16.60;62.40
1347;DHT22;667;48.796;9.480;2023-02-18T11:58:59;16.60;62.40
1347;DHT22;667;48.796;9.480;2023-02-18T12:01:49;16.60;62.30
1347;DHT22;667;48.796;9.480;2023-02-18T12:04:22;16.60;62.50
1347;DHT22;667;48.796;9.480;2023-02-18T12:09:27;16.60;61.80
1347;DHT22;667;48.796;9.480;2023-02-18T12:11:59;16.60;61.90
1347;DHT22;667;48.796;9.480;2023-02-18T12:14:26;16.60;61.40
1347;DHT22;667;48.796;9.480;2023-02-18T12:20:06;16.50;61.40
1347;DHT22;667;48.796;9.480;2023-02-18T12:22:52;16.60;61.30
1347;DHT22;667;48.796;9.480;2023-02-18T12:25:46;16.50;60.70
1347;DHT22;667;48.796;9.480;2023-02-18T12:33:48;16.50;60.80
1347;DHT22;667;48.796;9.480;2023-02-18T12:37:08;16.50;60.80
1347;DHT22;667;48.796;9.480;2023-02-18T12:53:53;16.50;60.70
1347;DHT22;667;48.796;9.480;2023-02-18T12:59:19;16.50;60.70
1347;DHT22;667;48.796;9.480;2023-02-18T13:05:11;16.40;60.60
1347;DHT22;667;48.796;9.480;2023-02-18T13:13:19;16.50;60.90
1347;DHT22;667;48.796;9.480;2023-02-18T13:18:24;16.60;60.00
1347;DHT22;667;48.796;9.480;2023-02-18T13:21:00;16.60;59.80
1347;DHT22;667;48.796;9.480;2023-02-18T13:23:32;16.60;59.80
1347;DHT22;667;48.796;9.480;2023-02-18T13:26:04;16.60;59.30
1347;DHT22;667;48.796;9.480;2023-02-18T13:28:48;16.60;59.00
1347;DHT22;667;48.796;9.480;2023-02-18T13:31:41;16.50;58.80
1347;DHT22;667;48.796;9.480;2023-02-18T13:34:24;16.60;58.80
1347;DHT22;667;48.796;9.480;2023-02-18T13:39:19;16.50;58.70
1347;DHT22;667;48.796;9.480;2023-02-18T13:41:47;16.50;58.70
1347;DHT22;667;48.796;9.480;2023-02-18T13:46:50;16.50;59.10
1347;DHT22;667;48.796;9.480;2023-02-18T13:49:25;16.50;59.10
1347;DHT22;667;48.796;9.480;2023-02-18T13:51:53;16.50;59.10
1347;DHT22;667;48.796;9.480;2023-02-18T13:54:38;16.40;58.60
1347;DHT22;667;48.796;9.480;2023-02-18T13:57:15;16.40;58.80
1347;DHT22;667;48.796;9.480;2023-02-18T13:59:46;16.40;58.50
1347;DHT22;667;48.796;9.480;2023-02-18T14:09:56;16.50;58.90
1347;DHT22;667;48.796;9.480;2023-02-18T14:12:34;16.50;58.40
1347;DHT22;667;48.796;9.480;2023-02-18T14:20:33;16.50;58.20
1347;DHT22;667;48.796;9.480;2023-02-18T14:25:56;16.60;57.40
1347;DHT22;667;48.796;9.480;2023-02-18T14:28:44;16.70;57.60
1347;DHT22;667;48.796;9.480;2023-02-18T14:31:33;16.70;57.80
1347;DHT22;667;48.796;9.480;2023-02-18T14:34:13;16.70;57.70
1347;DHT22;667;48.796;9.480;2023-02-18T14:45:16;16.70;57.20
1347;DHT22;667;48.796;9.480;2023-02-18T14:50:47;16.70;57.40
1347;DHT22;667;48.796;9.480;2023-02-18T14:53:17;16.70;57.30
1347;DHT22;667;48.796;9.480;2023-02-18T14:55:47;16.80;57.30
1347;DHT22;667;48.796;9.480;2023-02-18T14:58:29;16.70;57.30
1347;DHT22;667;48.796;9.480;2023-02-18T15:00:57;16.70;57.50
1347;DHT22;667;48.796;9.480;2023-02-18T15:03:25;16.70;57.60
1347;DHT22;667;48.796;9.480;2023-02-18T15:05:51;16.70;57.70
1347;DHT22;667;48.796;9.480;2023-02-18T15:11:00;16.60;57.60
1347;DHT22;667;48.796;9.480;2023-02-18T15:16:07;16.60;57.80
1347;DHT22;667;48.796;9.480;2023-02-18T15:18:42;16.50;57.90
1347;DHT22;667;48.796;9.480;2023-02-18T15:21:20;16.60;58.10
1347;DHT22;667;48.796;9.480;2023-02-18T15:23:46;16.50;58.00
1347;DHT22;667;48.796;9.480;2023-02-18T15:26:14;16.50;58.20
1347;DHT22;667;48.796;9.480;2023-02-18T15:28:49;16.50;58.20
1347;DHT22;667;48.796;9.480;2023-02-18T15:31:15;16.50;58.20
1347;DHT22;667;48.796;9.480;2023-02-18T15:33:46;16.50;58.30
1347;DHT22;667;48.796;9.480;2023-02-18T15:36:13;16.40;58.40
1347;DHT22;667;48.796;9.480;2023-02-18T15:38:39;16.50;58.50
1347;DHT22;667;48.796;9.480;2023-02-18T15:41:12;16.40;58.30
1347;DHT22;667;48.796;9.480;2023-02-18T15:43:38;16.40;58.40
1347;DHT22;667;48.796;9.480;2023-02-18T15:46:11;16.30;58.80
1347;DHT22;667;48.796;9.480;2023-02-18T15:48:46;16.40;58.50
1347;DHT22;667;48.796;9.480;2023-02-18T15:51:18;16.30;58.60
1347;DHT22;667;48.796;9.480;2023-02-18T15:53:49;16.30;58.60
1347;DHT22;667;48.796;9.480;2023-02-18T15:56:31;16.20;58.70
1347;DHT22;667;48.796;9.480;2023-02-18T15:59:18;16.30;58.90
1347;DHT22;667;48.796;9.480;2023-02-18T16:01:53;16.20;58.90
1347;DHT22;667;48.796;9.480;2023-02-18T16:04:21;16.20;59.00
1347;DHT22;667;48.796;9.480;2023-02-18T16:06:52;16.20;59.20
1347;DHT22;667;48.796;9.480;2023-02-18T16:09:34;16.10;59.20
1347;DHT22;667;48.796;9.480;2023-02-18T16:12:03;16.10;59.30
1347;DHT22;667;48.796;9.480;2023-02-18T16:27:48;16.00;59.80
1347;DHT22;667;48.796;9.480;2023-02-18T16:30:20;16.00;60.00
1347;DHT22;667;48.796;9.480;2023-02-18T16:32:48;16.00;60.10
1347;DHT22;667;48.796;9.480;2023-02-18T16:35:14;15.90;60.10
1347;DHT22;667;48.796;9.480;2023-02-18T16:37:41;15.90;60.30
1347;DHT22;667;48.796;9.480;2023-02-18T16:42:54;15.90;60.20
1347;DHT22;667;48.796;9.480;2023-02-18T16:45:29;15.90;60.40
1347;DHT22;667;48.796;9.480;2023-02-18T16:47:56;15.90;60.40
1347;DHT22;667;48.796;9.480;2023-02-18T16:50:22;15.90;60.60
1347;DHT22;667;48.796;9.480;2023-02-18T16:52:48;15.90;60.70
1347;DHT22;667;48.796;9.480;2023-02-18T16:55:21;15.80;60.60
1347;DHT22;667;48.796;9.480;2023-02-18T16:57:47;15.90;60.80
1347;DHT22;667;48.796;9.480;2023-02-18T17:00:14;15.80;60.70
1347;DHT22;667;48.796;9.480;2023-02-18T17:02:42;15.80;60.70
1347;DHT22;667;48.796;9.480;2023-02-18T17:05:07;15.80;61.50
1347;DHT22;667;48.796;9.480;2023-02-18T17:07:33;15.80;60.70
1347;DHT22;667;48.796;9.480;2023-02-18T17:10:01;15.80;60.70
1347;DHT22;667;48.796;9.480;2023-02-18T17:12:26;15.70;60.80
1347;DHT22;667;48.796;9.480;2023-02-18T17:14:52;15.80;61.00
1347;DHT22;667;48.796;9.480;2023-02-18T17:17:17;15.70;61.00
1347;DHT22;667;48.796;9.480;2023-02-18T17:22:14;15.70;61.40
1347;DHT22;667;48.796;9.480;2023-02-18T17:24:39;15.70;61.30
1347;DHT22;667;48.796;9.480;2023-02-18T17:27:05;15.70;61.40
1347;DHT22;667;48.796;9.480;2023-02-18T17:29:32;15.70;62.20
1347;DHT22;667;48.796;9.480;2023-02-18T17:31:58;15.70;62.40
1347;DHT22;667;48.796;9.480;2023-02-18T17:34:26;15.60;61.50
1347;DHT22;667;48.796;9.480;2023-02-18T17:36:53;15.60;61.60
1347;DHT22;667;48.796;9.480;2023-02-18T17:39:19;15.70;61.80
1347;DHT22;667;48.796;9.480;2023-02-18T17:41:45;15.70;62.00
1347;DHT22;667;48.796;9.480;2023-02-18T17:44:18;15.60;62.00
1347;DHT22;667;48.796;9.480;2023-02-18T17:46:45;15.60;62.10
1347;DHT22;667;48.796;9.480;2023-02-18T17:49:11;15.60;62.30
1347;DHT22;667;48.796;9.480;2023-02-18T17:51:37;15.60;62.50
1347;DHT22;667;48.796;9.480;2023-02-18T17:54:17;15.60;62.60
1347;DHT22;667;48.796;9.480;2023-02-18T17:56:44;15.50;62.80
1347;DHT22;667;48.796;9.480;2023-02-18T17:59:10;15.60;63.30
1347;DHT22;667;48.796;9.480;2023-02-18T18:01:35;15.50;63.50
1347;DHT22;667;48.796;9.480;2023-02-18T18:04:01;15.50;63.60
1347;DHT22;667;48.796;9.480;2023-02-18T18:06:26;15.50;63.80
1347;DHT22;667;48.796;9.480;2023-02-18T18:08:52;15.50;63.90
1347;DHT22;667;48.796;9.480;2023-02-18T18:11:23;15.50;64.10
1347;DHT22;667;48.796;9.480;2023-02-18T18:13:49;15.40;64.20
1347;DHT22;667;48.796;9.480;2023-02-18T18:16:16;15.40;64.50
1347;DHT22;667;48.796;9.480;2023-02-18T18:18:42;15.40;64.80
1347;DHT22;667;48.796;9.480;2023-02-18T18:21:27;15.40;65.10
1347;DHT22;667;48.796;9.480;2023-02-18T18:23:53;15.40;65.40
1347;DHT22;667;48.796;9.480;2023-02-18T18:26:19;15.30;65.60
1347;DHT22;667;48.796;9.480;2023-02-18T18:28:44;15.30;65.90
1347;DHT22;667;48.796;9.480;2023-02-18T18:31:15;15.30;66.00
1347;DHT22;667;48.796;9.480;2023-02-18T18:33:43;15.30;66.30
1347;DHT22;667;48.796;9.480;2023-02-18T18:36:13;15.20;66.40
1347;DHT22;667;48.796;9.480;2023-02-18T18:38:38;15.20;66.40
1347;DHT22;667;48.796;9.480;2023-02-18T18:41:04;15.20;66.70
1347;DHT22;667;48.796;9.480;2023-02-18T18:43:31;15.10;66.70
1347;DHT22;667;48.796;9.480;2023-02-18T18:45:58;15.20;66.90
1347;DHT22;667;48.796;9.480;2023-02-18T18:48:23;15.10;67.00
1347;DHT22;667;48.796;9.480;2023-02-18T18:50:51;15.10;67.10
1347;DHT22;667;48.796;9.480;2023-02-18T18:53:22;15.10;67.20